»·PEaware :: N3535R KSBA-KFAT

N3535R :: KSBA-KFAT

FLIGHT INFORMATION

Flight Status: Arrived
Operator: Privately registered:
United States
More flights under this callsign
Pilot: John B. (35460)
Aircraft: CIRRUS VISIONJET
(SF50)
More flights by this aircraft type
Origin: KSBA Santa Barbara Mun
United States
Destination: KFAT Fresno Yosemite Intl
United States
More flights between these airports :: More routes between these airports
Route: RZS V183 EHF V165 TTE ALTTA9
File this flight plan on PilotEdge
Remarks:
Altitude:
(Current/Filed)
15,000ft
Speed:
(Current/Filed)
300kts
Departed: 30-Jun-22 09:07 AM
Arrived: 30-Jun-22 09:52 AM
Distance/Time
Traveled:
141nm/0:45
Distance/Time
To Go:
Arrived

Flight Plot

Page will automatically refresh every two minutes.

Flight plan parsing failed; only flown route is shown


Map Options




Map Legend


Flown Route
Filed Route
Departure Airport
Arrival Airport
Navaid (VOR, NDB)
Fix

Horizontal Profiles

Position Reports

Time Latitude Longitude Heading Altitude Ground
Speed
30-Jun-22 08:54 34.432567 -119.835094 71 17ft 0kts
30-Jun-22 08:55 34.432567 -119.835094 71 17ft 0kts
30-Jun-22 08:56 34.432567 -119.835094 71 17ft 0kts
30-Jun-22 08:57 34.432567 -119.835094 71 17ft 0kts
30-Jun-22 08:58 34.432567 -119.835094 71 17ft 0kts
30-Jun-22 08:59 34.432567 -119.835094 71 17ft 0kts
30-Jun-22 09:00 34.432567 -119.835094 71 17ft 0kts
30-Jun-22 09:01 34.432567 -119.835094 71 17ft 0kts
30-Jun-22 09:02 34.432261 -119.835023 222 17ft 3kts
30-Jun-22 09:03 34.431548 -119.837043 251 17ft 5kts
30-Jun-22 09:04 34.430917 -119.839142 249 17ft 4kts
30-Jun-22 09:05 34.430769 -119.839615 248 17ft 0kts
30-Jun-22 09:06 34.423579 -119.838210 166 125ft 96kts
30-Jun-22 09:07 34.387742 -119.831593 171 2719ft 134kts
30-Jun-22 09:08 34.332008 -119.829543 215 3818ft 244kts
30-Jun-22 09:09 34.313272 -119.904126 259 5959ft 233kts
30-Jun-22 09:10 34.301423 -119.979531 260 7963ft 229kts
30-Jun-22 09:11 34.336656 -120.026655 23 9079ft 256kts
30-Jun-22 09:12 34.374413 -119.952675 44 10720ft 273kts
30-Jun-22 09:13 34.426069 -119.883033 48 12326ft 282kts
30-Jun-22 09:14 34.478895 -119.812103 47 13936ft 283kts
30-Jun-22 09:15 34.538788 -119.751210 30 15004ft 299kts
30-Jun-22 09:16 34.614831 -119.699076 28 15001ft 325kts
30-Jun-22 09:17 34.694822 -119.644350 28 15001ft 333kts
30-Jun-22 09:18 34.775644 -119.588923 28 15001ft 335kts
30-Jun-22 09:19 34.857092 -119.532943 28 15001ft 336kts
30-Jun-22 09:20 34.938476 -119.476875 28 14980ft 338kts
30-Jun-22 09:21 35.020753 -119.420071 28 14955ft 342kts
30-Jun-22 09:22 35.103954 -119.362484 28 14948ft 346kts
30-Jun-22 09:23 35.188009 -119.304156 29 14939ft 346kts
30-Jun-22 09:24 35.271416 -119.246131 29 15007ft 345kts
30-Jun-22 09:25 35.354880 -119.187944 29 15007ft 346kts
30-Jun-22 09:26 35.438615 -119.129417 29 15008ft 346kts
30-Jun-22 09:27 35.526102 -119.089668 6 14243ft 330kts
30-Jun-22 09:28 35.614619 -119.074080 6 13009ft 311kts
30-Jun-22 09:29 35.695548 -119.059668 5 13009ft 283kts
30-Jun-22 09:30 35.774114 -119.045664 6 11973ft 297kts
30-Jun-22 09:31 35.855569 -119.031041 5 10282ft 293kts
30-Jun-22 09:32 35.932315 -119.031067 336 10042ft 282kts
30-Jun-22 09:33 36.003162 -119.063594 335 10018ft 270kts
30-Jun-22 09:34 36.075156 -119.097841 335 9638ft 289kts
30-Jun-22 09:35 36.144587 -119.130919 336 8031ft 256kts
30-Jun-22 09:36 36.209830 -119.162097 337 6428ft 248kts
30-Jun-22 09:37 36.273385 -119.192493 337 6018ft 246kts
30-Jun-22 09:38 36.337436 -119.223204 337 6018ft 246kts
30-Jun-22 09:39 36.401281 -119.253877 337 6017ft 246kts
30-Jun-22 09:40 36.465242 -119.284683 337 6017ft 246kts
30-Jun-22 09:41 36.529254 -119.315553 337 6014ft 247kts
30-Jun-22 09:42 36.577526 -119.371026 302 5028ft 240kts
30-Jun-22 09:43 36.615517 -119.438339 305 3554ft 226kts
30-Jun-22 09:44 36.648815 -119.497286 304 2604ft 180kts
30-Jun-22 09:45 36.675096 -119.543670 300 2111ft 172kts
30-Jun-22 09:46 36.701437 -119.589789 305 1805ft 145kts
30-Jun-22 09:47 36.723146 -119.627615 305 1805ft 124kts
30-Jun-22 09:48 36.743878 -119.663895 305 1257ft 117kts
30-Jun-22 09:49 36.761264 -119.694256 305 670ft 88kts
30-Jun-22 09:50 36.773675 -119.716003 305 337ft 48kts
30-Jun-22 09:51 36.775555 -119.720758 162 337ft 0kts
30-Jun-22 09:52 36.774168 -119.721958 308 337ft 9kts

Navigation Log

Ident Type
Flight plan parsing failed, navigation log unavailable